首页
METAR-TAF:

METAR-TAF

机场 :

沃罗涅日, 俄罗斯

纬度: 51-39N, 经度: 039-15E, 海拔: 154米

当前天气观测

该预报发布于35分钟前的03:00 UTC
风速2节,风向西北
温度 19°C
湿度 68%
气压 1017 hPa
能见度10公里或以上
1500米以下无云,无积雨云

METAR: UUOO 200300Z 32001MPS CAVOK 19/13 Q1017 R30/090070 NOSIG RMK QFE749

时间: 06:35 (03:35 UTC)

预报

该预报发布于1小时和35分钟前的02:00 UTC
预报有效从20日的 03点(UTC)到 20日的 12点(UTC)
风速6节,风向
能见度10公里或以上
1500米以下无云,无积雨云

TAF: UUOO 200200Z 2003/2012 36003MPS CAVOK

超过4000个机场的气象观测和天气预报(METAR&TAF报告)。

可查询的气象台以黄色和红色小点在地图上表示。

将鼠标移到小点上方,可查看气象台名称。

然后点击查看天气观测和预报。

如需切换地图:点击带黑十字的绿色按钮放大地图;点击带横线的绿色按钮缩小地图;或者点击绿色箭头查看邻近地区的地图。


METAR-TAF: